Merbein, Australia
Current Conditions -  °F | °C
As of 6:00 PM on Saturday 25 Oct 2014 (Local Time) from YMIA Reporting Station
Clear Clear  
Wind Chill: 91°   Ceiling: Unl
Heat Index: 91°   Visibility: 6mi
Dew Point: 37°   Wind: 13mph
Humidity: 15%   Direction: 250°WSW
Pressure: 29.85"   Gusts: NA
Location:  34.17°S, 142.06°E
Report Text: YMIA 250700Z AUTO 25011KT 9999 // NCD 33/03 Q1011
Loading
Personal Weather Stations






























Interactive Weather Map
Tropical Storm Tracking
New forecast layout! Learn more

10-Day Weather Forecast

Advertisements
Track Severe Weather on mobile